TFM - Tactical Decision Aid
ID: Runway Winds: CIG/VIS Threshold:

KMSP - Minneapolis-St Paul, MN, US

Updated at: 0334 UTC 30 Jun 2022
Latest TAF at: 0251 UTC 30 Jun 2022

TAF Board

Time0253Z 30/04Z 30/05Z 30/06Z 30/07Z 30/08Z 30/09Z 30/10Z 30/11Z 30/12Z 30/13Z 30/14Z 30/15Z 30/16Z>>
Type OBS PRVL PRVL PRVL PRVL PRVL PRVL PRVL PRVL PRVL PRVL PRVL PRVL PRVL
VIS 10 >6 >6 >6 >6 >6 >6 >6 >6 >6 >6 >6 >6 >6
CIG -- -- -- -- -- -- -- -- -- 200 200 200 200 200
Cover SCT SCT SCT SCT SCT SCT SCT SCT SCT BKN BKN BKN BKN BKN
FltCat VFR VFR VFR VFR VFR VFR VFR VFR VFR VFR VFR VFR VFR VFR
WX -- -- -- -- -- -- -- -- -- -- -- -- -- --
WDir 190 190 190 190 190 190 190 190 190 200 200 220 220 220
WSpd 14 15 15 15 15 15 15 15 15 12 12 10 10 10
WGst 25 25 25 25 25 25 25 25 25 23 23 -- -- --
WSHgt -- 2000 2000 2000 2000 2000 2000 2000 2000 -- -- -- -- --
WSDir -- 210 210 210 210 210 210 210 210 -- -- -- -- --
WSSpd -- 50 50 50 50 50 50 50 50 -- -- -- -- --
R04/22
XWnd -8 -9 -9 -9 -9 -9 -9 -9 -9 -5 -5 -1 -1 -1
XGst -14 -14 -14 -14 -14 -14 -14 -14 -14 -10 -10 -- -- --
HWnd -11 -12 -12 -12 -12 -12 -12 -12 -12 -11 -11 -10 -10 -10
HGst -20 -20 -20 -20 -20 -20 -20 -20 -20 -21 -21 -- -- --
R12/30
XWnd -13 -14 -14 -14 -14 -14 -14 -14 -14 -12 -12 -10 -10 -10
XGst -23 -23 -23 -23 -23 -23 -23 -23 -23 -23 -23 -- -- --
HWnd 5 5 5 5 5 5 5 5 5 2 2 -2 -2 -2
HGst 9 9 9 9 9 9 9 9 9 4 4 -- -- --
R17/35
XWnd -5 -5 -5 -5 -5 -5 -5 -5 -5 -6 -6 -8 -8 -8
XGst -9 -9 -9 -9 -9 -9 -9 -9 -9 -12 -12 -- -- --
HWnd 13 14 14 14 14 14 14 14 14 10 10 6 6 6
HGst 23 23 23 23 23 23 23 23 23 20 20 -- -- --

TDA Impact Legend

  None Marginal Slight Moderate High
Visibility (sm) >5 2.9≤X≤5 0.9≤X<2.9 <0.9
Ceiling (100 ft) >30 9.9≤X≤30 4.9≤X<9.9 <4.9
Wind Speed (kt) <15 15≤X<25 25≤X<30 ≥30
Wind Gust (kt) <15 15≤X<25 25≤X<35 ≥35
Weather No Wx Reported VCTS -TS,-FZRA TS,FZRA +TS,+FZRA
TAF
KMSP 300251Z 3003/0106 18015G25KT P6SM FEW150
  FM300400 19015G25KT P6SM SCT250 WS020/21050KT
  FM301200 20012G23KT P6SM BKN200
  FM301400 22010KT P6SM BKN200
  FM302200 29010KT P6SM FEW250


METAR
KMSP 300253Z 19014G25KT 10SM SCT200 31/14 A2982 RMK AO2 PK WND 20029/0232 SLP090 T03110144 55006
KMSP 300153Z 18015G26KT 10SM FEW160 SCT250 32/15 A2981 RMK AO2 PK WND 16030/0128 SLP089 T03170150
KMSP 300053Z 18016G25KT 10SM FEW160 SCT250 33/16 A2982 RMK AO2 PK WND 18029/0043 SLP093 T03280156

Radar Display
Forecast Discussion